createdAt,value
2023-03-11T00:00:25.402Z,2.40
2023-03-11T00:02:55.392Z,2.40
2023-03-11T00:05:25.784Z,2.30
2023-03-11T00:07:54.216Z,2.60
2023-03-11T00:10:25.482Z,2.30
2023-03-11T00:15:23.343Z,2.30
2023-03-11T00:17:52.370Z,2.40
2023-03-11T00:20:23.339Z,2.40
2023-03-11T00:25:21.600Z,2.40
2023-03-11T00:30:19.057Z,2.40
2023-03-11T00:32:49.121Z,2.40
2023-03-11T00:35:19.550Z,2.50
2023-03-11T00:37:49.101Z,2.30
2023-03-11T00:40:19.398Z,2.30
2023-03-11T00:42:47.705Z,3.00
2023-03-11T00:50:18.025Z,2.40
2023-03-11T00:52:46.550Z,2.30
2023-03-11T00:55:16.235Z,2.00
2023-03-11T00:57:45.094Z,2.30
2023-03-11T01:00:16.392Z,2.30
2023-03-11T01:05:14.687Z,2.30
2023-03-11T01:10:12.590Z,2.10
2023-03-11T01:12:40.662Z,2.30
2023-03-11T01:15:10.296Z,2.30
2023-03-11T01:20:08.640Z,2.50
2023-03-11T01:22:38.067Z,2.30
2023-03-11T01:25:06.808Z,2.00
2023-03-11T01:39:58.401Z,2.30
2023-03-11T01:47:39.413Z,2.40
2023-03-11T01:50:13.664Z,2.50
2023-03-11T01:52:43.626Z,2.40
2023-03-11T01:55:14.952Z,2.40
2023-03-11T01:57:44.468Z,2.40
2023-03-11T02:00:15.726Z,2.60
2023-03-11T02:02:46.778Z,2.40
2023-03-11T02:10:14.922Z,2.40
2023-03-11T02:12:44.150Z,2.50
2023-03-11T02:15:13.684Z,3.00
2023-03-11T02:17:43.332Z,2.40
2023-03-11T02:20:25.714Z,2.60
2023-03-11T02:25:35.289Z,2.40
2023-03-11T02:28:06.968Z,2.40
2023-03-11T02:30:36.068Z,2.40
2023-03-11T02:40:45.054Z,2.30
2023-03-11T02:43:18.414Z,2.40
2023-03-11T02:45:48.096Z,2.40
2023-03-11T02:50:46.696Z,2.30
2023-03-11T02:53:15.755Z,2.30
2023-03-11T03:00:42.121Z,2.20
2023-03-11T03:18:02.540Z,2.20
2023-03-11T03:22:59.070Z,2.10
2023-03-11T03:35:22.222Z,2.10
2023-03-11T03:40:18.857Z,2.00
2023-03-11T03:50:13.458Z,2.10
2023-03-11T03:52:43.117Z,2.10
2023-03-11T03:55:11.633Z,2.40
2023-03-11T04:00:10.203Z,2.00
2023-03-11T04:05:07.771Z,2.40
2023-03-11T04:10:07.503Z,2.00
2023-03-11T04:27:27.417Z,2.00
2023-03-11T04:44:48.599Z,1.90
2023-03-11T04:54:41.872Z,1.90
2023-03-11T05:02:08.317Z,1.70
2023-03-11T05:19:35.154Z,1.60
2023-03-11T05:36:55.990Z,1.50
2023-03-11T05:46:49.325Z,1.40
2023-03-11T05:49:17.376Z,1.40
2023-03-11T05:54:16.013Z,1.60
2023-03-11T05:56:45.701Z,1.50
2023-03-11T06:09:14.994Z,1.50
2023-03-11T06:14:13.928Z,2.10
2023-03-11T06:16:42.526Z,1.50
2023-03-11T06:24:08.502Z,1.50
2023-03-11T06:26:37.964Z,1.50
2023-03-11T06:31:34.852Z,1.00
2023-03-11T06:44:00.067Z,1.50
2023-03-11T06:53:54.809Z,1.50
2023-03-11T06:56:24.510Z,1.50
2023-03-11T07:01:24.233Z,1.50
2023-03-11T07:06:23.514Z,1.50
2023-03-11T07:08:53.262Z,1.50
2023-03-11T07:11:23.448Z,1.50
2023-03-11T07:16:23.474Z,1.50
2023-03-11T07:18:52.471Z,1.40
2023-03-11T07:21:22.606Z,1.40
2023-03-11T07:23:53.949Z,1.40
2023-03-11T07:31:21.768Z,1.30
2023-03-11T07:33:51.730Z,1.20
2023-03-11T07:36:22.252Z,1.20
2023-03-11T07:43:47.136Z,1.20
2023-03-11T07:46:18.574Z,1.10
2023-03-11T07:51:18.179Z,1.10
2023-03-11T07:56:16.251Z,1.00
2023-03-11T08:01:16.612Z,1.10
2023-03-11T08:03:45.568Z,1.10
2023-03-11T08:06:16.535Z,1.10
2023-03-11T08:11:14.722Z,1.10
2023-03-11T08:16:13.240Z,1.10
2023-03-11T08:21:12.739Z,1.00
2023-03-11T08:23:43.200Z,1.00
2023-03-11T08:26:13.137Z,0.90
2023-03-11T08:31:14.821Z,0.90
2023-03-11T08:33:43.650Z,0.90
2023-03-11T08:38:41.775Z,1.00
2023-03-11T08:46:08.043Z,1.00
2023-03-11T08:48:37.832Z,1.00
2023-03-11T08:51:11.236Z,1.00
2023-03-11T08:56:10.124Z,1.00
2023-03-11T09:03:36.511Z,0.80
2023-03-11T09:06:07.843Z,0.90
2023-03-11T09:11:05.574Z,0.60
2023-03-11T09:13:35.565Z,0.90
2023-03-11T09:18:34.030Z,0.90
2023-03-11T09:30:57.602Z,0.90
2023-03-11T09:40:58.540Z,1.00
2023-03-11T09:43:46.605Z,1.00
2023-03-11T09:46:44.196Z,1.20
2023-03-11T09:49:22.699Z,1.00
2023-03-11T09:51:58.822Z,1.00
2023-03-11T09:59:32.999Z,1.10
2023-03-11T10:02:04.143Z,1.20
2023-03-11T10:04:39.586Z,1.20
2023-03-11T10:07:14.137Z,1.20
2023-03-11T10:09:47.428Z,1.20
2023-03-11T10:12:26.936Z,1.20
2023-03-11T10:15:05.938Z,1.30
2023-03-11T10:18:12.859Z,1.20
2023-03-11T10:20:50.671Z,1.10
2023-03-11T10:23:27.168Z,1.30
2023-03-11T10:26:04.258Z,1.30
2023-03-11T10:28:36.857Z,1.60
2023-03-11T10:31:18.991Z,1.40
2023-03-11T10:33:51.267Z,2.20
2023-03-11T10:36:24.246Z,1.60
2023-03-11T10:38:54.879Z,1.60
2023-03-11T10:41:29.945Z,1.60
2023-03-11T10:44:04.443Z,1.60
2023-03-11T10:51:35.835Z,1.50
2023-03-11T10:54:05.197Z,1.50
2023-03-11T10:56:35.143Z,1.50
2023-03-11T10:59:05.302Z,2.20
2023-03-11T11:04:02.709Z,1.70
2023-03-11T11:06:33.792Z,1.90
2023-03-11T11:09:15.896Z,2.70
2023-03-11T11:19:11.949Z,2.60
2023-03-11T11:21:44.200Z,2.60
2023-03-11T11:24:19.529Z,2.60
2023-03-11T11:27:06.347Z,2.70
2023-03-11T11:29:34.903Z,2.80
2023-03-11T11:32:19.480Z,2.80
2023-03-11T11:34:58.858Z,4.80
2023-03-11T11:37:32.439Z,3.20
2023-03-11T11:40:11.163Z,3.10
2023-03-11T11:42:41.091Z,3.00
2023-03-11T11:45:15.975Z,2.90
2023-03-11T11:47:49.414Z,5.50
2023-03-11T11:50:25.771Z,2.80
2023-03-11T11:52:59.389Z,2.80
2023-03-11T11:55:29.726Z,2.70
2023-03-11T12:00:41.909Z,2.60
2023-03-11T12:03:26.160Z,2.60
2023-03-11T12:05:58.975Z,2.60
2023-03-11T12:08:37.117Z,2.60
2023-03-11T12:11:08.377Z,2.50
2023-03-11T12:14:03.276Z,2.50
2023-03-11T12:16:42.048Z,2.70
2023-03-11T12:19:22.759Z,2.50
2023-03-11T12:22:13.868Z,2.50
2023-03-11T12:25:01.462Z,2.40
2023-03-11T12:27:34.862Z,2.40
2023-03-11T12:30:06.436Z,2.30
2023-03-11T12:32:38.708Z,2.30
2023-03-11T12:35:20.644Z,2.40
2023-03-11T12:37:57.374Z,2.40
2023-03-11T12:40:59.155Z,2.80
2023-03-11T12:43:30.497Z,2.60
2023-03-11T12:45:59.805Z,2.60
2023-03-11T12:48:35.999Z,2.60
2023-03-11T12:53:45.931Z,2.00
2023-03-11T12:56:27.343Z,2.50
2023-03-11T12:59:16.048Z,2.90
2023-03-11T13:02:06.321Z,2.30
2023-03-11T13:04:45.387Z,2.50
2023-03-11T13:07:43.414Z,2.60
2023-03-11T13:10:22.605Z,3.00
2023-03-11T13:12:53.381Z,2.90
2023-03-11T13:15:36.232Z,3.00
2023-03-11T13:18:16.763Z,3.10
2023-03-11T13:20:49.220Z,3.30
2023-03-11T13:23:33.848Z,3.10
2023-03-11T13:26:17.334Z,3.10
2023-03-11T13:29:10.991Z,3.10
2023-03-11T13:31:57.349Z,3.00
2023-03-11T13:34:33.180Z,3.10
2023-03-11T13:37:20.360Z,2.90
2023-03-11T13:39:56.092Z,3.00
2023-03-11T13:42:30.714Z,2.90
2023-03-11T13:45:01.052Z,2.90
2023-03-11T13:47:31.506Z,2.80
2023-03-11T13:50:04.481Z,2.90
2023-03-11T13:52:36.001Z,2.90
2023-03-11T13:55:07.545Z,2.90
2023-03-11T13:57:37.177Z,2.90
2023-03-11T14:00:17.199Z,2.90
2023-03-11T14:02:48.597Z,2.90
2023-03-11T14:05:20.197Z,2.90
2023-03-11T14:10:25.775Z,3.00
2023-03-11T14:15:26.544Z,3.00
2023-03-11T14:17:55.626Z,3.10
2023-03-11T14:20:26.285Z,3.20
2023-03-11T14:22:56.938Z,3.10
2023-03-11T14:25:27.450Z,3.20
2023-03-11T14:27:58.268Z,3.10
2023-03-11T14:30:29.625Z,3.40
2023-03-11T14:33:00.478Z,3.30
2023-03-11T14:35:29.118Z,3.30
2023-03-11T14:40:29.698Z,3.40
2023-03-11T14:43:01.483Z,3.40
2023-03-11T14:45:33.511Z,3.50
2023-03-11T14:48:07.109Z,3.50
2023-03-11T14:50:36.605Z,3.50
2023-03-11T14:53:10.070Z,3.50
2023-03-11T14:55:41.296Z,3.40
2023-03-11T14:58:16.238Z,3.40
2023-03-11T15:00:51.516Z,3.40
2023-03-11T15:03:24.422Z,3.50
2023-03-11T15:05:55.834Z,3.80
2023-03-11T15:08:28.239Z,4.10
2023-03-11T15:11:18.898Z,5.10
2023-03-11T15:13:50.927Z,4.80
2023-03-11T15:16:31.476Z,5.00
2023-03-11T15:19:02.586Z,5.20
2023-03-11T15:24:05.154Z,5.00
2023-03-11T15:26:35.508Z,4.70
2023-03-11T15:29:13.944Z,4.40
2023-03-11T15:31:45.212Z,4.20
2023-03-11T15:34:25.419Z,4.00
2023-03-11T15:37:07.583Z,3.90
2023-03-11T15:39:46.591Z,3.70
2023-03-11T15:42:19.910Z,3.70
2023-03-11T15:45:13.401Z,3.50
2023-03-11T15:47:43.055Z,3.50
2023-03-11T15:50:25.241Z,3.70
2023-03-11T15:52:55.089Z,3.40
2023-03-11T15:57:54.100Z,3.20
2023-03-11T16:00:24.355Z,3.10
2023-03-11T16:02:54.583Z,3.00
2023-03-11T16:05:25.473Z,2.90
2023-03-11T16:10:24.751Z,2.80
2023-03-11T16:15:26.558Z,2.70
2023-03-11T16:17:57.420Z,2.50
2023-03-11T16:20:27.685Z,2.40
2023-03-11T16:22:59.688Z,2.50
2023-03-11T16:25:30.284Z,2.40
2023-03-11T16:27:58.895Z,2.40
2023-03-11T16:30:28.054Z,2.40
2023-03-11T16:32:57.497Z,2.30
2023-03-11T16:35:25.840Z,2.40
2023-03-11T16:40:28.429Z,2.10
2023-03-11T16:42:59.691Z,2.10
2023-03-11T16:45:27.846Z,2.00
2023-03-11T16:50:26.818Z,2.00
2023-03-11T16:52:56.001Z,2.00
2023-03-11T16:55:25.735Z,1.80
2023-03-11T17:05:21.745Z,1.70
2023-03-11T17:07:54.435Z,2.00
2023-03-11T17:20:21.478Z,2.00
2023-03-11T17:22:51.156Z,2.10
2023-03-11T17:30:27.118Z,2.00
2023-03-11T17:38:01.062Z,1.90
2023-03-11T17:42:59.888Z,1.90
2023-03-11T17:47:56.502Z,1.80
2023-03-11T17:50:26.379Z,1.70
2023-03-11T17:55:26.330Z,1.60
2023-03-11T17:57:54.619Z,1.80
2023-03-11T18:00:23.622Z,1.40
2023-03-11T18:12:48.731Z,1.40
2023-03-11T18:15:19.309Z,3.80
2023-03-11T18:17:48.539Z,1.20
2023-03-11T18:25:15.251Z,0.90
2023-03-11T18:30:14.815Z,1.10
2023-03-11T18:35:14.257Z,1.10
2023-03-11T18:40:12.303Z,0.90
2023-03-11T18:45:12.064Z,0.80
2023-03-11T18:47:41.473Z,1.00
2023-03-11T18:50:10.821Z,0.90
2023-03-11T18:55:08.097Z,0.90
2023-03-11T19:00:05.464Z,0.70
2023-03-11T19:05:04.446Z,0.90
2023-03-11T19:07:33.037Z,0.90
2023-03-11T19:22:27.301Z,0.80
2023-03-11T19:37:18.228Z,0.60
2023-03-11T19:39:47.694Z,0.70
2023-03-11T19:57:09.260Z,0.50
2023-03-11T19:59:37.289Z,0.50
2023-03-11T20:07:03.327Z,0.50
2023-03-11T20:09:33.199Z,0.40
2023-03-11T20:14:32.455Z,0.40
2023-03-11T20:17:00.572Z,1.10
2023-03-11T20:19:29.715Z,0.40
2023-03-11T20:21:57.991Z,0.30
2023-03-11T20:26:54.849Z,0.20
2023-03-11T20:31:52.836Z,0.20
2023-03-11T20:36:50.987Z,0.20
2023-03-11T20:44:15.996Z,0.20
2023-03-11T20:46:44.695Z,-0.80
2023-03-11T20:49:14.299Z,2.90
2023-03-11T20:51:43.848Z,0.10
2023-03-11T20:54:12.602Z,0.10
2023-03-11T20:56:40.695Z,-0.10
2023-03-11T20:59:09.341Z,0.00
2023-03-11T21:01:37.556Z,-0.10
2023-03-11T21:04:06.387Z,-1.30
2023-03-11T21:06:38.132Z,0.00
2023-03-11T21:09:08.574Z,0.00
2023-03-11T21:11:36.704Z,2.70
2023-03-11T21:14:05.848Z,0.00
2023-03-11T21:16:35.032Z,0.00
2023-03-11T21:19:05.568Z,1.10
2023-03-11T21:21:35.283Z,0.00
2023-03-11T21:24:03.876Z,0.00
2023-03-11T21:26:31.949Z,1.80
2023-03-11T21:29:00.247Z,0.10
2023-03-11T21:31:29.580Z,1.70
2023-03-11T21:33:59.570Z,0.20
2023-03-11T21:36:28.446Z,0.20
2023-03-11T21:38:57.850Z,2.60
2023-03-11T21:41:27.780Z,0.20
2023-03-11T21:43:57.644Z,0.30
2023-03-11T21:46:28.066Z,0.10
2023-03-11T21:48:56.721Z,3.50
2023-03-11T21:51:25.708Z,0.60
2023-03-11T21:53:53.789Z,0.40
2023-03-11T21:56:23.552Z,0.50
2023-03-11T21:58:53.741Z,0.50
2023-03-11T22:01:21.989Z,1.20
2023-03-11T22:03:50.589Z,3.10
2023-03-11T22:06:18.860Z,3.40
2023-03-11T22:08:47.144Z,0.50
2023-03-11T22:11:18.460Z,1.80
2023-03-11T22:13:49.247Z,2.80
2023-03-11T22:16:18.129Z,0.70
2023-03-11T22:18:46.842Z,0.70
2023-03-11T22:21:16.340Z,0.60
2023-03-11T22:23:45.583Z,0.60
2023-03-11T22:26:14.140Z,0.70
2023-03-11T22:28:42.218Z,1.00
2023-03-11T22:31:13.950Z,3.60
2023-03-11T22:33:42.366Z,0.80
2023-03-11T22:36:11.012Z,1.00
2023-03-11T22:38:41.941Z,0.80
2023-03-11T22:41:10.121Z,0.80
2023-03-11T22:43:39.275Z,2.90
2023-03-11T22:46:08.212Z,0.90
2023-03-11T22:48:37.772Z,0.90
2023-03-11T22:51:07.164Z,0.90
2023-03-11T22:53:35.374Z,0.90
2023-03-11T22:56:08.270Z,0.90
2023-03-11T22:58:36.516Z,2.60
2023-03-11T23:01:05.406Z,0.90
2023-03-11T23:03:33.911Z,1.00
2023-03-11T23:06:06.515Z,0.90
2023-03-11T23:08:35.133Z,1.00
2023-03-11T23:11:04.635Z,1.60
2023-03-11T23:13:35.560Z,1.00
2023-03-11T23:16:08.673Z,3.50
2023-03-11T23:18:36.968Z,1.10
2023-03-11T23:21:07.156Z,3.50
2023-03-11T23:23:35.137Z,1.10
2023-03-11T23:26:09.083Z,1.90
2023-03-11T23:28:37.251Z,1.50
2023-03-11T23:31:06.050Z,1.00
2023-03-11T23:33:34.339Z,1.10
2023-03-11T23:36:03.576Z,3.20
2023-03-11T23:38:33.420Z,1.10
2023-03-11T23:41:01.490Z,1.00
2023-03-11T23:43:29.702Z,1.00
2023-03-11T23:45:57.911Z,1.00
2023-03-11T23:48:26.051Z,1.00
2023-03-11T23:53:23.308Z,1.00
2023-03-11T23:55:52.877Z,0.90
2023-03-11T23:58:22.007Z,1.00
